sensor_id;sensor_type;location;lat;lon;timestamp;temperature;humidity
13115;DHT22;6623;52.120;8.660;2023-04-06T00:01:40;3.70;59.50
13115;DHT22;6623;52.120;8.660;2023-04-06T00:04:06;3.60;59.50
13115;DHT22;6623;52.120;8.660;2023-04-06T00:06:32;3.60;59.50
13115;DHT22;6623;52.120;8.660;2023-04-06T00:08:58;3.60;59.70
13115;DHT22;6623;52.120;8.660;2023-04-06T00:11:24;4.20;60.10
13115;DHT22;6623;52.120;8.660;2023-04-06T00:13:50;3.60;59.80
13115;DHT22;6623;52.120;8.660;2023-04-06T00:16:16;3.50;59.80
13115;DHT22;6623;52.120;8.660;2023-04-06T00:18:41;3.50;59.90
13115;DHT22;6623;52.120;8.660;2023-04-06T00:21:07;3.50;60.00
13115;DHT22;6623;52.120;8.660;2023-04-06T00:23:32;3.50;60.10
13115;DHT22;6623;52.120;8.660;2023-04-06T00:25:58;3.30;60.10
13115;DHT22;6623;52.120;8.660;2023-04-06T00:28:23;3.30;60.20
13115;DHT22;6623;52.120;8.660;2023-04-06T00:30:52;3.30;60.20
13115;DHT22;6623;52.120;8.660;2023-04-06T00:33:19;3.30;60.40
13115;DHT22;6623;52.120;8.660;2023-04-06T00:35:44;3.30;60.40
13115;DHT22;6623;52.120;8.660;2023-04-06T00:38:10;3.30;60.50
13115;DHT22;6623;52.120;8.660;2023-04-06T00:40:36;3.30;60.70
13115;DHT22;6623;52.120;8.660;2023-04-06T00:43:01;3.30;60.70
13115;DHT22;6623;52.120;8.660;2023-04-06T00:45:27;3.20;60.80
13115;DHT22;6623;52.120;8.660;2023-04-06T00:47:53;3.30;60.80
13115;DHT22;6623;52.120;8.660;2023-04-06T00:50:18;3.20;60.80
13115;DHT22;6623;52.120;8.660;2023-04-06T00:52:44;3.20;60.90
13115;DHT22;6623;52.120;8.660;2023-04-06T00:55:10;3.10;60.90
13115;DHT22;6623;52.120;8.660;2023-04-06T00:57:36;3.10;61.00
13115;DHT22;6623;52.120;8.660;2023-04-06T01:00:02;3.30;61.20
13115;DHT22;6623;52.120;8.660;2023-04-06T01:02:28;3.20;61.30
13115;DHT22;6623;52.120;8.660;2023-04-06T01:04:53;4.40;62.00
13115;DHT22;6623;52.120;8.660;2023-04-06T01:07:19;3.00;61.20
13115;DHT22;6623;52.120;8.660;2023-04-06T01:09:45;3.00;61.30
13115;DHT22;6623;52.120;8.660;2023-04-06T01:12:11;3.20;61.50
13115;DHT22;6623;52.120;8.660;2023-04-06T01:14:36;3.10;61.50
13115;DHT22;6623;52.120;8.660;2023-04-06T01:17:02;3.00;61.50
13115;DHT22;6623;52.120;8.660;2023-04-06T01:19:27;3.00;61.50
13115;DHT22;6623;52.120;8.660;2023-04-06T01:21:53;3.00;61.60
13115;DHT22;6623;52.120;8.660;2023-04-06T01:24:19;3.00;61.60
13115;DHT22;6623;52.120;8.660;2023-04-06T01:26:45;3.00;61.70
13115;DHT22;6623;52.120;8.660;2023-04-06T01:29:11;3.00;61.70
13115;DHT22;6623;52.120;8.660;2023-04-06T01:31:37;2.90;61.80
13115;DHT22;6623;52.120;8.660;2023-04-06T01:34:02;3.10;61.90
13115;DHT22;6623;52.120;8.660;2023-04-06T01:36:28;2.80;61.80
13115;DHT22;6623;52.120;8.660;2023-04-06T01:38:53;2.80;61.80
13115;DHT22;6623;52.120;8.660;2023-04-06T01:41:19;2.90;61.80
13115;DHT22;6623;52.120;8.660;2023-04-06T01:43:46;2.80;62.10
13115;DHT22;6623;52.120;8.660;2023-04-06T01:46:12;2.80;61.80
13115;DHT22;6623;52.120;8.660;2023-04-06T01:48:37;2.80;61.80
13115;DHT22;6623;52.120;8.660;2023-04-06T01:51:03;2.90;62.00
13115;DHT22;6623;52.120;8.660;2023-04-06T01:53:29;2.90;62.00
13115;DHT22;6623;52.120;8.660;2023-04-06T01:55:54;2.90;61.90
13115;DHT22;6623;52.120;8.660;2023-04-06T01:58:20;2.90;61.90
13115;DHT22;6623;52.120;8.660;2023-04-06T02:00:45;2.80;61.80
13115;DHT22;6623;52.120;8.660;2023-04-06T02:03:11;2.80;61.90
13115;DHT22;6623;52.120;8.660;2023-04-06T02:05:36;2.80;61.90
13115;DHT22;6623;52.120;8.660;2023-04-06T02:08:07;4.00;62.60
13115;DHT22;6623;52.120;8.660;2023-04-06T02:10:33;2.90;62.00
13115;DHT22;6623;52.120;8.660;2023-04-06T02:12:59;2.80;62.00
13115;DHT22;6623;52.120;8.660;2023-04-06T02:15:27;2.80;62.00
13115;DHT22;6623;52.120;8.660;2023-04-06T02:17:53;2.90;62.20
13115;DHT22;6623;52.120;8.660;2023-04-06T02:20:19;2.70;62.10
13115;DHT22;6623;52.120;8.660;2023-04-06T02:22:45;2.70;62.20
13115;DHT22;6623;52.120;8.660;2023-04-06T02:25:10;2.70;62.20
13115;DHT22;6623;52.120;8.660;2023-04-06T02:27:36;2.70;62.20
13115;DHT22;6623;52.120;8.660;2023-04-06T02:30:05;2.70;62.20
13115;DHT22;6623;52.120;8.660;2023-04-06T02:32:31;2.70;62.10
13115;DHT22;6623;52.120;8.660;2023-04-06T02:34:56;2.70;62.30
13115;DHT22;6623;52.120;8.660;2023-04-06T02:37:22;2.70;62.20
13115;DHT22;6623;52.120;8.660;2023-04-06T02:39:49;2.70;62.20
13115;DHT22;6623;52.120;8.660;2023-04-06T02:42:14;2.60;62.30
13115;DHT22;6623;52.120;8.660;2023-04-06T02:44:41;2.70;62.30
13115;DHT22;6623;52.120;8.660;2023-04-06T02:47:06;2.60;62.20
13115;DHT22;6623;52.120;8.660;2023-04-06T02:49:32;2.60;62.30
13115;DHT22;6623;52.120;8.660;2023-04-06T02:51:57;3.20;62.80
13115;DHT22;6623;52.120;8.660;2023-04-06T02:54:23;2.60;62.60
13115;DHT22;6623;52.120;8.660;2023-04-06T02:56:48;2.60;62.40
13115;DHT22;6623;52.120;8.660;2023-04-06T02:59:14;2.80;62.70
13115;DHT22;6623;52.120;8.660;2023-04-06T03:01:40;2.60;62.60
13115;DHT22;6623;52.120;8.660;2023-04-06T03:04:05;2.60;62.70
13115;DHT22;6623;52.120;8.660;2023-04-06T03:06:31;2.80;62.90
13115;DHT22;6623;52.120;8.660;2023-04-06T03:08:56;2.50;62.60
13115;DHT22;6623;52.120;8.660;2023-04-06T03:11:22;2.70;62.70
13115;DHT22;6623;52.120;8.660;2023-04-06T03:13:47;2.60;62.70
13115;DHT22;6623;52.120;8.660;2023-04-06T03:16:13;2.60;62.80
13115;DHT22;6623;52.120;8.660;2023-04-06T03:18:39;2.60;62.80
13115;DHT22;6623;52.120;8.660;2023-04-06T03:21:04;2.50;62.90
13115;DHT22;6623;52.120;8.660;2023-04-06T03:23:30;2.50;62.90
13115;DHT22;6623;52.120;8.660;2023-04-06T03:25:55;2.50;63.60
13115;DHT22;6623;52.120;8.660;2023-04-06T03:28:21;2.50;62.90
13115;DHT22;6623;52.120;8.660;2023-04-06T03:30:46;2.40;62.90
13115;DHT22;6623;52.120;8.660;2023-04-06T03:33:12;2.50;63.00
13115;DHT22;6623;52.120;8.660;2023-04-06T03:35:37;2.50;63.10
13115;DHT22;6623;52.120;8.660;2023-04-06T03:38:04;2.60;63.10
13115;DHT22;6623;52.120;8.660;2023-04-06T03:40:31;2.60;63.00
13115;DHT22;6623;52.120;8.660;2023-04-06T03:42:56;2.60;63.10
13115;DHT22;6623;52.120;8.660;2023-04-06T03:45:22;2.60;63.20
13115;DHT22;6623;52.120;8.660;2023-04-06T03:47:47;2.50;63.70
13115;DHT22;6623;52.120;8.660;2023-04-06T03:50:13;2.40;63.10
13115;DHT22;6623;52.120;8.660;2023-04-06T03:52:38;2.50;63.20
13115;DHT22;6623;52.120;8.660;2023-04-06T03:55:04;2.50;63.20
13115;DHT22;6623;52.120;8.660;2023-04-06T03:57:30;2.50;63.20
13115;DHT22;6623;52.120;8.660;2023-04-06T03:59:56;2.40;63.20
13115;DHT22;6623;52.120;8.660;2023-04-06T04:02:24;2.50;63.20
13115;DHT22;6623;52.120;8.660;2023-04-06T04:04:50;2.40;63.20
13115;DHT22;6623;52.120;8.660;2023-04-06T04:07:15;2.20;63.30
13115;DHT22;6623;52.120;8.660;2023-04-06T04:09:41;2.50;63.30
13115;DHT22;6623;52.120;8.660;2023-04-06T04:12:06;2.40;63.20
13115;DHT22;6623;52.120;8.660;2023-04-06T04:14:32;2.50;63.40
13115;DHT22;6623;52.120;8.660;2023-04-06T04:16:57;2.40;63.90
13115;DHT22;6623;52.120;8.660;2023-04-06T04:19:23;2.40;63.40
13115;DHT22;6623;52.120;8.660;2023-04-06T04:21:48;2.40;63.40
13115;DHT22;6623;52.120;8.660;2023-04-06T04:24:14;2.40;63.50
13115;DHT22;6623;52.120;8.660;2023-04-06T04:26:40;2.40;63.50
13115;DHT22;6623;52.120;8.660;2023-04-06T04:29:06;2.40;63.40
13115;DHT22;6623;52.120;8.660;2023-04-06T04:31:32;2.30;63.30
13115;DHT22;6623;52.120;8.660;2023-04-06T04:33:59;2.40;63.50
13115;DHT22;6623;52.120;8.660;2023-04-06T04:36:24;2.40;63.40
13115;DHT22;6623;52.120;8.660;2023-04-06T04:38:51;2.40;63.60
13115;DHT22;6623;52.120;8.660;2023-04-06T04:41:16;2.40;63.60
13115;DHT22;6623;52.120;8.660;2023-04-06T04:43:42;2.30;63.60
13115;DHT22;6623;52.120;8.660;2023-04-06T04:46:07;2.20;63.60
13115;DHT22;6623;52.120;8.660;2023-04-06T04:48:33;2.30;63.70
13115;DHT22;6623;52.120;8.660;2023-04-06T04:50:58;2.30;63.80
13115;DHT22;6623;52.120;8.660;2023-04-06T04:53:24;2.30;63.80
13115;DHT22;6623;52.120;8.660;2023-04-06T04:55:51;2.30;63.80
13115;DHT22;6623;52.120;8.660;2023-04-06T04:58:16;2.40;63.70
13115;DHT22;6623;52.120;8.660;2023-04-06T05:00:44;2.30;63.70
13115;DHT22;6623;52.120;8.660;2023-04-06T05:03:16;2.30;63.80
13115;DHT22;6623;52.120;8.660;2023-04-06T05:05:43;2.30;63.80
13115;DHT22;6623;52.120;8.660;2023-04-06T05:08:08;2.30;63.90
13115;DHT22;6623;52.120;8.660;2023-04-06T05:10:34;2.30;64.00
13115;DHT22;6623;52.120;8.660;2023-04-06T05:13:00;2.40;64.00
13115;DHT22;6623;52.120;8.660;2023-04-06T05:15:26;2.30;64.10
13115;DHT22;6623;52.120;8.660;2023-04-06T05:17:51;2.30;64.10
13115;DHT22;6623;52.120;8.660;2023-04-06T05:20:17;2.40;64.20
13115;DHT22;6623;52.120;8.660;2023-04-06T05:22:42;2.70;64.50
13115;DHT22;6623;52.120;8.660;2023-04-06T05:25:08;2.40;64.40
13115;DHT22;6623;52.120;8.660;2023-04-06T05:27:34;2.40;64.50
13115;DHT22;6623;52.120;8.660;2023-04-06T05:29:59;2.40;64.40
13115;DHT22;6623;52.120;8.660;2023-04-06T05:32:25;2.40;64.50
13115;DHT22;6623;52.120;8.660;2023-04-06T05:34:52;2.40;64.40
13115;DHT22;6623;52.120;8.660;2023-04-06T05:37:17;2.40;64.50
13115;DHT22;6623;52.120;8.660;2023-04-06T05:39:43;2.50;64.70
13115;DHT22;6623;52.120;8.660;2023-04-06T05:42:08;2.50;64.70
13115;DHT22;6623;52.120;8.660;2023-04-06T05:44:34;2.60;64.80
13115;DHT22;6623;52.120;8.660;2023-04-06T05:47:00;2.60;64.90
13115;DHT22;6623;52.120;8.660;2023-04-06T05:49:26;2.60;65.00
13115;DHT22;6623;52.120;8.660;2023-04-06T05:51:51;2.70;65.10
13115;DHT22;6623;52.120;8.660;2023-04-06T05:54:17;2.70;65.20
13115;DHT22;6623;52.120;8.660;2023-04-06T05:56:42;2.70;65.20
13115;DHT22;6623;52.120;8.660;2023-04-06T05:59:08;2.80;65.40
13115;DHT22;6623;52.120;8.660;2023-04-06T06:01:33;2.80;65.50
13115;DHT22;6623;52.120;8.660;2023-04-06T06:04:01;2.90;66.10
13115;DHT22;6623;52.120;8.660;2023-04-06T06:06:27;3.00;66.50
13115;DHT22;6623;52.120;8.660;2023-04-06T06:08:54;3.10;66.80
13115;DHT22;6623;52.120;8.660;2023-04-06T06:11:19;3.50;67.10
13115;DHT22;6623;52.120;8.660;2023-04-06T06:13:45;3.60;67.20
13115;DHT22;6623;52.120;8.660;2023-04-06T06:16:10;3.70;67.00
13115;DHT22;6623;52.120;8.660;2023-04-06T06:18:36;3.80;67.00
13115;DHT22;6623;52.120;8.660;2023-04-06T06:21:02;3.90;66.80
13115;DHT22;6623;52.120;8.660;2023-04-06T06:23:27;4.00;66.60
13115;DHT22;6623;52.120;8.660;2023-04-06T06:25:53;4.00;66.50
13115;DHT22;6623;52.120;8.660;2023-04-06T06:28:19;4.00;66.30
13115;DHT22;6623;52.120;8.660;2023-04-06T06:30:44;4.20;66.30
13115;DHT22;6623;52.120;8.660;2023-04-06T06:33:10;4.20;66.10
13115;DHT22;6623;52.120;8.660;2023-04-06T06:35:36;4.30;65.90
13115;DHT22;6623;52.120;8.660;2023-04-06T06:38:01;4.30;65.80
13115;DHT22;6623;52.120;8.660;2023-04-06T06:40:27;4.30;65.60
13115;DHT22;6623;52.120;8.660;2023-04-06T06:42:53;4.30;65.50
13115;DHT22;6623;52.120;8.660;2023-04-06T06:45:18;4.70;65.60
13115;DHT22;6623;52.120;8.660;2023-04-06T06:47:45;4.30;65.30
13115;DHT22;6623;52.120;8.660;2023-04-06T06:50:11;4.30;65.20
13115;DHT22;6623;52.120;8.660;2023-04-06T06:52:36;4.30;64.90
13115;DHT22;6623;52.120;8.660;2023-04-06T06:55:02;4.30;64.90
13115;DHT22;6623;52.120;8.660;2023-04-06T06:57:27;4.40;64.80
13115;DHT22;6623;52.120;8.660;2023-04-06T06:59:53;4.40;64.70
13115;DHT22;6623;52.120;8.660;2023-04-06T07:02:18;4.40;64.50
13115;DHT22;6623;52.120;8.660;2023-04-06T07:04:47;4.30;64.20
13115;DHT22;6623;52.120;8.660;2023-04-06T07:07:13;4.30;64.00
13115;DHT22;6623;52.120;8.660;2023-04-06T07:09:39;4.30;63.90
13115;DHT22;6623;52.120;8.660;2023-04-06T07:12:05;4.30;63.60
13115;DHT22;6623;52.120;8.660;2023-04-06T07:14:30;4.50;63.60
13115;DHT22;6623;52.120;8.660;2023-04-06T07:16:56;4.40;63.30
13115;DHT22;6623;52.120;8.660;2023-04-06T07:19:21;4.40;63.20
13115;DHT22;6623;52.120;8.660;2023-04-06T07:21:47;4.50;63.20
13115;DHT22;6623;52.120;8.660;2023-04-06T07:24:14;4.60;63.20
13115;DHT22;6623;52.120;8.660;2023-04-06T07:26:39;4.60;63.10
13115;DHT22;6623;52.120;8.660;2023-04-06T07:29:05;4.70;63.10
13115;DHT22;6623;52.120;8.660;2023-04-06T07:31:31;4.60;62.90
13115;DHT22;6623;52.120;8.660;2023-04-06T07:33:56;4.50;62.70
13115;DHT22;6623;52.120;8.660;2023-04-06T07:36:22;4.70;62.70
13115;DHT22;6623;52.120;8.660;2023-04-06T07:38:47;4.70;62.70
13115;DHT22;6623;52.120;8.660;2023-04-06T07:41:14;4.70;62.60
13115;DHT22;6623;52.120;8.660;2023-04-06T07:43:43;4.80;62.50
13115;DHT22;6623;52.120;8.660;2023-04-06T07:46:08;4.80;62.60
13115;DHT22;6623;52.120;8.660;2023-04-06T07:48:34;4.90;62.50
13115;DHT22;6623;52.120;8.660;2023-04-06T07:51:03;5.10;62.60
13115;DHT22;6623;52.120;8.660;2023-04-06T07:53:32;5.10;62.40
13115;DHT22;6623;52.120;8.660;2023-04-06T07:55:58;5.20;62.40
13115;DHT22;6623;52.120;8.660;2023-04-06T07:58:24;5.20;62.40
13115;DHT22;6623;52.120;8.660;2023-04-06T08:00:50;5.20;62.30
13115;DHT22;6623;52.120;8.660;2023-04-06T08:03:15;5.20;62.10
13115;DHT22;6623;52.120;8.660;2023-04-06T08:05:42;5.30;62.20
13115;DHT22;6623;52.120;8.660;2023-04-06T08:08:08;5.20;62.10
13115;DHT22;6623;52.120;8.660;2023-04-06T08:10:33;5.40;62.10
13115;DHT22;6623;52.120;8.660;2023-04-06T08:12:59;5.40;61.90
13115;DHT22;6623;52.120;8.660;2023-04-06T08:15:25;5.40;61.90
13115;DHT22;6623;52.120;8.660;2023-04-06T08:17:51;5.50;62.00
13115;DHT22;6623;52.120;8.660;2023-04-06T08:20:17;5.60;62.00
13115;DHT22;6623;52.120;8.660;2023-04-06T08:22:42;5.60;62.00
13115;DHT22;6623;52.120;8.660;2023-04-06T08:25:08;5.70;62.10
13115;DHT22;6623;52.120;8.660;2023-04-06T08:27:33;7.80;63.30
13115;DHT22;6623;52.120;8.660;2023-04-06T08:29:59;5.70;61.90
13115;DHT22;6623;52.120;8.660;2023-04-06T08:32:25;5.80;62.00
13115;DHT22;6623;52.120;8.660;2023-04-06T08:34:53;5.90;62.00
13115;DHT22;6623;52.120;8.660;2023-04-06T08:37:19;5.80;61.60
13115;DHT22;6623;52.120;8.660;2023-04-06T08:39:45;5.90;61.70
13115;DHT22;6623;52.120;8.660;2023-04-06T08:42:15;5.90;61.80
13115;DHT22;6623;52.120;8.660;2023-04-06T08:44:42;6.00;61.60
13115;DHT22;6623;52.120;8.660;2023-04-06T08:47:08;6.10;61.70
13115;DHT22;6623;52.120;8.660;2023-04-06T08:49:34;6.00;61.60
13115;DHT22;6623;52.120;8.660;2023-04-06T08:52:02;6.20;61.70
13115;DHT22;6623;52.120;8.660;2023-04-06T08:54:28;6.30;61.70
13115;DHT22;6623;52.120;8.660;2023-04-06T08:56:54;6.30;61.50
13115;DHT22;6623;52.120;8.660;2023-04-06T08:59:21;6.40;61.40
13115;DHT22;6623;52.120;8.660;2023-04-06T09:01:48;6.40;61.20
13115;DHT22;6623;52.120;8.660;2023-04-06T09:04:15;6.50;61.30
13115;DHT22;6623;52.120;8.660;2023-04-06T09:06:40;6.60;61.20
13115;DHT22;6623;52.120;8.660;2023-04-06T09:09:06;6.70;61.20
13115;DHT22;6623;52.120;8.660;2023-04-06T09:11:51;6.70;61.00
13115;DHT22;6623;52.120;8.660;2023-04-06T09:14:39;6.60;60.70
13115;DHT22;6623;52.120;8.660;2023-04-06T09:17:05;6.90;61.00
13115;DHT22;6623;52.120;8.660;2023-04-06T09:19:31;7.70;61.10
13115;DHT22;6623;52.120;8.660;2023-04-06T09:22:04;7.70;61.00
13115;DHT22;6623;52.120;8.660;2023-04-06T09:24:51;7.10;60.50
13115;DHT22;6623;52.120;8.660;2023-04-06T09:27:17;7.10;60.30
13115;DHT22;6623;52.120;8.660;2023-04-06T09:29:44;7.10;60.30
13115;DHT22;6623;52.120;8.660;2023-04-06T09:32:10;7.20;60.10
13115;DHT22;6623;52.120;8.660;2023-04-06T09:34:38;8.00;60.40
13115;DHT22;6623;52.120;8.660;2023-04-06T09:37:16;7.80;60.30
13115;DHT22;6623;52.120;8.660;2023-04-06T09:39:42;7.30;59.80
13115;DHT22;6623;52.120;8.660;2023-04-06T09:42:08;7.20;59.70
13115;DHT22;6623;52.120;8.660;2023-04-06T09:44:33;8.00;60.00
13115;DHT22;6623;52.120;8.660;2023-04-06T09:46:59;7.50;59.50
13115;DHT22;6623;52.120;8.660;2023-04-06T09:49:27;7.80;59.50
13115;DHT22;6623;52.120;8.660;2023-04-06T09:51:56;7.50;58.40
13115;DHT22;6623;52.120;8.660;2023-04-06T09:54:23;7.60;58.80
13115;DHT22;6623;52.120;8.660;2023-04-06T09:57:08;8.70;59.30
13115;DHT22;6623;52.120;8.660;2023-04-06T10:05:13;8.00;58.50
13115;DHT22;6623;52.120;8.660;2023-04-06T10:07:42;8.10;58.30
13115;DHT22;6623;52.120;8.660;2023-04-06T10:10:08;8.00;58.20
13115;DHT22;6623;52.120;8.660;2023-04-06T10:12:37;8.20;58.30
13115;DHT22;6623;52.120;8.660;2023-04-06T10:15:03;8.80;58.30
13115;DHT22;6623;52.120;8.660;2023-04-06T10:17:29;8.20;58.00
13115;DHT22;6623;52.120;8.660;2023-04-06T10:22:55;8.40;57.70
13115;DHT22;6623;52.120;8.660;2023-04-06T10:25:29;8.20;57.40
13115;DHT22;6623;52.120;8.660;2023-04-06T10:28:13;8.50;57.40
13115;DHT22;6623;52.120;8.660;2023-04-06T10:30:42;8.50;57.20
13115;DHT22;6623;52.120;8.660;2023-04-06T10:33:20;8.50;56.90
13115;DHT22;6623;52.120;8.660;2023-04-06T10:35:46;8.60;56.40
13115;DHT22;6623;52.120;8.660;2023-04-06T10:38:12;8.80;56.30
13115;DHT22;6623;52.120;8.660;2023-04-06T10:40:40;8.80;55.90
13115;DHT22;6623;52.120;8.660;2023-04-06T10:43:22;8.80;55.60
13115;DHT22;6623;52.120;8.660;2023-04-06T10:45:55;9.00;55.30
13115;DHT22;6623;52.120;8.660;2023-04-06T10:48:21;9.00;55.00
13115;DHT22;6623;52.120;8.660;2023-04-06T10:50:49;9.10;54.70
13115;DHT22;6623;52.120;8.660;2023-04-06T10:55:54;9.60;54.70
13115;DHT22;6623;52.120;8.660;2023-04-06T10:58:24;9.30;54.20
13115;DHT22;6623;52.120;8.660;2023-04-06T11:00:50;9.30;54.00
13115;DHT22;6623;52.120;8.660;2023-04-06T11:03:16;9.30;53.70
13115;DHT22;6623;52.120;8.660;2023-04-06T11:05:49;9.30;53.60
13115;DHT22;6623;52.120;8.660;2023-04-06T11:08:31;9.40;53.40
13115;DHT22;6623;52.120;8.660;2023-04-06T11:11:26;9.50;53.10
13115;DHT22;6623;52.120;8.660;2023-04-06T11:13:56;9.50;53.00
13115;DHT22;6623;52.120;8.660;2023-04-06T11:16:24;9.60;53.00
13115;DHT22;6623;52.120;8.660;2023-04-06T11:19:00;9.70;52.90
13115;DHT22;6623;52.120;8.660;2023-04-06T11:24:05;9.60;52.40
13115;DHT22;6623;52.120;8.660;2023-04-06T11:26:57;9.70;52.20
13115;DHT22;6623;52.120;8.660;2023-04-06T11:29:28;9.80;52.10
13115;DHT22;6623;52.120;8.660;2023-04-06T11:32:02;9.90;52.10
13115;DHT22;6623;52.120;8.660;2023-04-06T11:34:29;9.90;52.00
13115;DHT22;6623;52.120;8.660;2023-04-06T11:36:57;9.90;52.00
13115;DHT22;6623;52.120;8.660;2023-04-06T11:39:24;9.90;51.90
13115;DHT22;6623;52.120;8.660;2023-04-06T11:41:52;10.00;51.80
13115;DHT22;6623;52.120;8.660;2023-04-06T11:46:57;10.00;51.40
13115;DHT22;6623;52.120;8.660;2023-04-06T11:49:30;11.20;52.10
13115;DHT22;6623;52.120;8.660;2023-04-06T11:51:56;10.10;51.30
13115;DHT22;6623;52.120;8.660;2023-04-06T11:54:36;10.00;51.20
13115;DHT22;6623;52.120;8.660;2023-04-06T11:57:03;10.10;51.30
13115;DHT22;6623;52.120;8.660;2023-04-06T11:59:29;10.20;51.40
13115;DHT22;6623;52.120;8.660;2023-04-06T12:01:56;10.10;51.30
13115;DHT22;6623;52.120;8.660;2023-04-06T12:04:22;10.30;51.10
13115;DHT22;6623;52.120;8.660;2023-04-06T12:06:48;10.10;51.00
13115;DHT22;6623;52.120;8.660;2023-04-06T12:09:13;10.30;50.90
13115;DHT22;6623;52.120;8.660;2023-04-06T12:11:39;10.30;50.70
13115;DHT22;6623;52.120;8.660;2023-04-06T12:14:06;10.30;50.60
13115;DHT22;6623;52.120;8.660;2023-04-06T12:16:33;11.30;51.00
13115;DHT22;6623;52.120;8.660;2023-04-06T12:18:59;11.00;50.60
13115;DHT22;6623;52.120;8.660;2023-04-06T12:21:26;10.90;50.70
13115;DHT22;6623;52.120;8.660;2023-04-06T12:23:52;10.50;49.90
13115;DHT22;6623;52.120;8.660;2023-04-06T12:26:17;10.50;49.80
13115;DHT22;6623;52.120;8.660;2023-04-06T12:28:43;11.40;50.30
13115;DHT22;6623;52.120;8.660;2023-04-06T12:31:15;10.60;50.00
13115;DHT22;6623;52.120;8.660;2023-04-06T12:33:41;10.50;49.80
13115;DHT22;6623;52.120;8.660;2023-04-06T12:36:14;10.80;49.90
13115;DHT22;6623;52.120;8.660;2023-04-06T12:38:41;10.80;49.70
13115;DHT22;6623;52.120;8.660;2023-04-06T12:41:07;11.50;50.00
13115;DHT22;6623;52.120;8.660;2023-04-06T12:43:33;10.80;49.20
13115;DHT22;6623;52.120;8.660;2023-04-06T12:45:58;10.90;48.90
13115;DHT22;6623;52.120;8.660;2023-04-06T12:48:25;10.90;48.80
13115;DHT22;6623;52.120;8.660;2023-04-06T12:50:55;11.50;48.80
13115;DHT22;6623;52.120;8.660;2023-04-06T12:53:21;10.90;48.40
13115;DHT22;6623;52.120;8.660;2023-04-06T12:55:47;11.00;48.20
13115;DHT22;6623;52.120;8.660;2023-04-06T12:58:12;10.90;48.20
13115;DHT22;6623;52.120;8.660;2023-04-06T13:00:37;11.00;48.10
13115;DHT22;6623;52.120;8.660;2023-04-06T13:03:03;11.50;48.30
13115;DHT22;6623;52.120;8.660;2023-04-06T13:05:29;10.90;47.80
13115;DHT22;6623;52.120;8.660;2023-04-06T13:07:54;11.10;47.80
13115;DHT22;6623;52.120;8.660;2023-04-06T13:10:20;11.10;47.60
13115;DHT22;6623;52.120;8.660;2023-04-06T13:12:45;11.10;47.30
13115;DHT22;6623;52.120;8.660;2023-04-06T13:15:11;12.40;47.70
13115;DHT22;6623;52.120;8.660;2023-04-06T13:17:37;11.20;46.90
13115;DHT22;6623;52.120;8.660;2023-04-06T13:20:02;11.20;46.40
13115;DHT22;6623;52.120;8.660;2023-04-06T13:22:29;11.30;46.40
13115;DHT22;6623;52.120;8.660;2023-04-06T13:24:54;11.30;46.20
13115;DHT22;6623;52.120;8.660;2023-04-06T13:27:20;11.30;46.10
13115;DHT22;6623;52.120;8.660;2023-04-06T13:29:45;12.60;46.50
13115;DHT22;6623;52.120;8.660;2023-04-06T13:32:11;12.10;46.20
13115;DHT22;6623;52.120;8.660;2023-04-06T13:34:37;11.30;45.50
13115;DHT22;6623;52.120;8.660;2023-04-06T13:37:02;11.20;45.20
13115;DHT22;6623;52.120;8.660;2023-04-06T13:39:28;11.20;45.00
13115;DHT22;6623;52.120;8.660;2023-04-06T13:41:55;12.10;45.20
13115;DHT22;6623;52.120;8.660;2023-04-06T13:44:22;10.90;44.30
13115;DHT22;6623;52.120;8.660;2023-04-06T13:46:47;11.30;44.20
13115;DHT22;6623;52.120;8.660;2023-04-06T13:49:13;11.20;43.80
13115;DHT22;6623;52.120;8.660;2023-04-06T13:51:39;11.30;43.60
13115;DHT22;6623;52.120;8.660;2023-04-06T13:54:04;11.40;43.50
13115;DHT22;6623;52.120;8.660;2023-04-06T13:56:30;12.00;43.90
13115;DHT22;6623;52.120;8.660;2023-04-06T13:58:56;11.50;43.70
13115;DHT22;6623;52.120;8.660;2023-04-06T14:01:22;11.30;43.50
13115;DHT22;6623;52.120;8.660;2023-04-06T14:03:50;11.50;43.60
13115;DHT22;6623;52.120;8.660;2023-04-06T14:06:16;11.30;43.50
13115;DHT22;6623;52.120;8.660;2023-04-06T14:08:41;12.90;44.40
13115;DHT22;6623;52.120;8.660;2023-04-06T14:11:14;11.60;43.80
13115;DHT22;6623;52.120;8.660;2023-04-06T14:13:40;11.60;43.70
13115;DHT22;6623;52.120;8.660;2023-04-06T14:16:06;12.50;44.20
13115;DHT22;6623;52.120;8.660;2023-04-06T14:18:32;11.00;43.50
13115;DHT22;6623;52.120;8.660;2023-04-06T14:20:59;12.20;44.10
13115;DHT22;6623;52.120;8.660;2023-04-06T14:23:28;11.70;43.60
13115;DHT22;6623;52.120;8.660;2023-04-06T14:26:20;11.80;43.50
13115;DHT22;6623;52.120;8.660;2023-04-06T14:28:46;11.70;43.20
13115;DHT22;6623;52.120;8.660;2023-04-06T14:31:14;11.90;43.60
13115;DHT22;6623;52.120;8.660;2023-04-06T14:33:41;12.40;43.60
13115;DHT22;6623;52.120;8.660;2023-04-06T14:36:07;11.70;43.10
13115;DHT22;6623;52.120;8.660;2023-04-06T14:38:33;11.90;43.10
13115;DHT22;6623;52.120;8.660;2023-04-06T14:40:59;11.70;43.00
13115;DHT22;6623;52.120;8.660;2023-04-06T14:43:24;12.80;43.40
13115;DHT22;6623;52.120;8.660;2023-04-06T14:45:51;11.60;42.80
13115;DHT22;6623;52.120;8.660;2023-04-06T14:48:16;11.70;42.60
13115;DHT22;6623;52.120;8.660;2023-04-06T14:50:52;11.50;42.60
13115;DHT22;6623;52.120;8.660;2023-04-06T14:53:19;11.60;42.60
13115;DHT22;6623;52.120;8.660;2023-04-06T14:55:44;11.60;42.70
13115;DHT22;6623;52.120;8.660;2023-04-06T14:58:10;12.40;43.10
13115;DHT22;6623;52.120;8.660;2023-04-06T15:00:37;11.70;42.80
13115;DHT22;6623;52.120;8.660;2023-04-06T15:03:03;11.80;42.90
13115;DHT22;6623;52.120;8.660;2023-04-06T15:05:29;12.20;43.30
13115;DHT22;6623;52.120;8.660;2023-04-06T15:07:56;11.70;43.10
13115;DHT22;6623;52.120;8.660;2023-04-06T15:10:21;11.90;43.30
13115;DHT22;6623;52.120;8.660;2023-04-06T15:12:47;11.60;43.30
13115;DHT22;6623;52.120;8.660;2023-04-06T15:15:12;11.80;43.30
13115;DHT22;6623;52.120;8.660;2023-04-06T15:17:38;11.80;43.50
13115;DHT22;6623;52.120;8.660;2023-04-06T15:20:04;11.90;43.50
13115;DHT22;6623;52.120;8.660;2023-04-06T15:22:30;12.00;43.60
13115;DHT22;6623;52.120;8.660;2023-04-06T15:24:56;11.90;43.50
13115;DHT22;6623;52.120;8.660;2023-04-06T15:27:22;11.80;43.60
13115;DHT22;6623;52.120;8.660;2023-04-06T15:29:47;13.20;44.40
13115;DHT22;6623;52.120;8.660;2023-04-06T15:32:22;12.00;43.90
13115;DHT22;6623;52.120;8.660;2023-04-06T15:34:47;12.00;43.70
13115;DHT22;6623;52.120;8.660;2023-04-06T15:37:13;12.30;44.00
13115;DHT22;6623;52.120;8.660;2023-04-06T15:39:38;11.90;43.80
13115;DHT22;6623;52.120;8.660;2023-04-06T15:42:04;11.90;43.80
13115;DHT22;6623;52.120;8.660;2023-04-06T15:44:30;11.70;43.70
13115;DHT22;6623;52.120;8.660;2023-04-06T15:46:55;12.30;44.00
13115;DHT22;6623;52.120;8.660;2023-04-06T15:49:21;12.00;43.90
13115;DHT22;6623;52.120;8.660;2023-04-06T15:51:47;12.20;43.90
13115;DHT22;6623;52.120;8.660;2023-04-06T15:54:13;13.30;44.50
13115;DHT22;6623;52.120;8.660;2023-04-06T15:56:39;12.20;43.80
13115;DHT22;6623;52.120;8.660;2023-04-06T15:59:05;12.50;43.90
13115;DHT22;6623;52.120;8.660;2023-04-06T16:01:30;12.30;43.80
13115;DHT22;6623;52.120;8.660;2023-04-06T16:03:56;12.20;43.70
13115;DHT22;6623;52.120;8.660;2023-04-06T16:06:21;12.70;44.10
13115;DHT22;6623;52.120;8.660;2023-04-06T16:08:47;12.10;43.50
13115;DHT22;6623;52.120;8.660;2023-04-06T16:11:13;11.90;43.50